Terminal Aerodrome Forecast
Issued by NWS

Home | Current Version | Previous Version | Text Only | Print | Product List | Glossary On
Versions: 1 2 3 4 5 6 7 8 9 10 11 12 13 14 15 16 17 18 19 20 21 22 23 24
000
FTUS41 KOKX 201100
TAFSWF
TAF
KSWF 201134Z 2012/2118 VRB02KT P6SM BKN025
     FM201600 20007KT P6SM BKN035
     FM201800 20010KT P6SM SCT040
     FM210000 18005KT P6SM BKN040
     FM210500 VRB04KT P6SM BKN025
     FM210800 VRB04KT P6SM BKN015
     FM211000 VRB04KT 6SM BR BKN007
     FM211400 20005KT P6SM SCT015 BKN025
     FM211600 20005KT P6SM SCT025 BKN035
      AMD NOT SKED=

USA.gov is the U.S. government's official web portal to all federal, state and local government web resources and services.